sensor_id;sensor_type;location;lat;lon;timestamp;P1;durP1;ratioP1;P2;durP2;ratioP2
77123;SDS011;66079;47.646;19.130;2023-05-10T00:00:20;2.50;;;1.90;;
77123;SDS011;66079;47.646;19.130;2023-05-10T00:03:24;2.40;;;2.03;;
77123;SDS011;66079;47.646;19.130;2023-05-10T00:06:27;4.15;;;2.13;;
77123;SDS011;66079;47.646;19.130;2023-05-10T00:09:30;5.53;;;2.00;;
77123;SDS011;66079;47.646;19.130;2023-05-10T00:12:32;3.73;;;2.03;;
77123;SDS011;66079;47.646;19.130;2023-05-10T00:15:35;3.08;;;2.10;;
77123;SDS011;66079;47.646;19.130;2023-05-10T00:18:37;2.92;;;2.00;;
77123;SDS011;66079;47.646;19.130;2023-05-10T00:21:40;2.35;;;2.00;;
77123;SDS011;66079;47.646;19.130;2023-05-10T00:24:42;5.93;;;2.30;;
77123;SDS011;66079;47.646;19.130;2023-05-10T00:27:45;3.27;;;2.00;;
77123;SDS011;66079;47.646;19.130;2023-05-10T00:30:47;2.92;;;2.22;;
77123;SDS011;66079;47.646;19.130;2023-05-10T00:33:50;3.70;;;2.22;;
77123;SDS011;66079;47.646;19.130;2023-05-10T00:36:52;4.00;;;2.30;;
77123;SDS011;66079;47.646;19.130;2023-05-10T00:39:56;6.03;;;2.13;;
77123;SDS011;66079;47.646;19.130;2023-05-10T00:42:58;3.63;;;2.30;;
77123;SDS011;66079;47.646;19.130;2023-05-10T00:46:02;3.90;;;2.15;;
77123;SDS011;66079;47.646;19.130;2023-05-10T00:49:06;3.58;;;2.30;;
77123;SDS011;66079;47.646;19.130;2023-05-10T00:52:09;2.33;;;2.00;;
77123;SDS011;66079;47.646;19.130;2023-05-10T00:55:13;2.80;;;2.00;;
77123;SDS011;66079;47.646;19.130;2023-05-10T00:58:16;2.90;;;2.10;;
77123;SDS011;66079;47.646;19.130;2023-05-10T01:01:19;3.72;;;2.20;;
77123;SDS011;66079;47.646;19.130;2023-05-10T01:04:22;3.90;;;2.15;;
77123;SDS011;66079;47.646;19.130;2023-05-10T01:07:27;3.00;;;2.70;;
77123;SDS011;66079;47.646;19.130;2023-05-10T01:10:30;3.47;;;2.67;;
77123;SDS011;66079;47.646;19.130;2023-05-10T01:13:34;2.73;;;2.10;;
77123;SDS011;66079;47.646;19.130;2023-05-10T01:16:40;3.75;;;2.28;;
77123;SDS011;66079;47.646;19.130;2023-05-10T01:19:44;6.15;;;2.78;;
77123;SDS011;66079;47.646;19.130;2023-05-10T01:22:50;2.58;;;1.88;;
77123;SDS011;66079;47.646;19.130;2023-05-10T01:40:08;3.53;;;2.20;;
77123;SDS011;66079;47.646;19.130;2023-05-10T01:43:33;2.90;;;2.27;;
77123;SDS011;66079;47.646;19.130;2023-05-10T01:46:42;3.10;;;2.20;;
77123;SDS011;66079;47.646;19.130;2023-05-10T01:49:49;2.83;;;2.20;;
77123;SDS011;66079;47.646;19.130;2023-05-10T01:52:55;5.30;;;2.40;;
77123;SDS011;66079;47.646;19.130;2023-05-10T01:56:00;3.10;;;2.17;;
77123;SDS011;66079;47.646;19.130;2023-05-10T01:59:05;2.63;;;2.13;;
77123;SDS011;66079;47.646;19.130;2023-05-10T02:02:10;2.60;;;2.07;;
77123;SDS011;66079;47.646;19.130;2023-05-10T02:05:16;3.20;;;2.60;;
77123;SDS011;66079;47.646;19.130;2023-05-10T02:08:19;3.05;;;2.40;;
77123;SDS011;66079;47.646;19.130;2023-05-10T02:11:23;3.92;;;2.60;;
77123;SDS011;66079;47.646;19.130;2023-05-10T02:14:28;3.53;;;2.30;;
77123;SDS011;66079;47.646;19.130;2023-05-10T02:17:33;5.80;;;2.40;;
77123;SDS011;66079;47.646;19.130;2023-05-10T02:20:37;4.20;;;2.47;;
77123;SDS011;66079;47.646;19.130;2023-05-10T02:23:41;3.13;;;2.35;;
77123;SDS011;66079;47.646;19.130;2023-05-10T02:26:45;5.55;;;2.63;;
77123;SDS011;66079;47.646;19.130;2023-05-10T02:29:50;4.83;;;2.43;;
77123;SDS011;66079;47.646;19.130;2023-05-10T02:32:53;6.37;;;2.73;;
77123;SDS011;66079;47.646;19.130;2023-05-10T02:35:58;4.75;;;2.42;;
77123;SDS011;66079;47.646;19.130;2023-05-10T02:39:01;3.85;;;2.75;;
77123;SDS011;66079;47.646;19.130;2023-05-10T02:42:04;4.82;;;2.80;;
77123;SDS011;66079;47.646;19.130;2023-05-10T02:45:09;4.77;;;2.77;;
77123;SDS011;66079;47.646;19.130;2023-05-10T02:48:15;3.57;;;2.60;;
77123;SDS011;66079;47.646;19.130;2023-05-10T02:51:19;5.10;;;2.75;;
77123;SDS011;66079;47.646;19.130;2023-05-10T02:54:30;6.63;;;2.70;;
77123;SDS011;66079;47.646;19.130;2023-05-10T02:57:35;4.50;;;2.80;;
77123;SDS011;66079;47.646;19.130;2023-05-10T03:00:43;4.53;;;2.90;;
77123;SDS011;66079;47.646;19.130;2023-05-10T03:03:46;7.37;;;2.93;;
77123;SDS011;66079;47.646;19.130;2023-05-10T03:06:49;6.10;;;2.53;;
77123;SDS011;66079;47.646;19.130;2023-05-10T03:09:52;5.78;;;3.20;;
77123;SDS011;66079;47.646;19.130;2023-05-10T03:13:10;4.20;;;2.90;;
77123;SDS011;66079;47.646;19.130;2023-05-10T03:16:25;7.97;;;2.90;;
77123;SDS011;66079;47.646;19.130;2023-05-10T03:19:40;3.30;;;2.50;;
77123;SDS011;66079;47.646;19.130;2023-05-10T03:23:01;4.43;;;2.55;;
77123;SDS011;66079;47.646;19.130;2023-05-10T03:26:07;3.88;;;2.55;;
77123;SDS011;66079;47.646;19.130;2023-05-10T03:29:11;3.83;;;2.80;;
77123;SDS011;66079;47.646;19.130;2023-05-10T03:32:15;3.40;;;2.50;;
77123;SDS011;66079;47.646;19.130;2023-05-10T03:35:17;3.33;;;2.43;;
77123;SDS011;66079;47.646;19.130;2023-05-10T03:38:20;3.30;;;2.70;;
77123;SDS011;66079;47.646;19.130;2023-05-10T03:41:23;4.35;;;2.92;;
77123;SDS011;66079;47.646;19.130;2023-05-10T03:44:25;3.75;;;2.80;;
77123;SDS011;66079;47.646;19.130;2023-05-10T03:47:28;4.27;;;3.13;;
77123;SDS011;66079;47.646;19.130;2023-05-10T03:50:32;3.70;;;3.03;;
77123;SDS011;66079;47.646;19.130;2023-05-10T03:53:35;5.13;;;3.10;;
77123;SDS011;66079;47.646;19.130;2023-05-10T03:56:37;4.13;;;3.10;;
77123;SDS011;66079;47.646;19.130;2023-05-10T03:59:40;5.57;;;3.17;;
77123;SDS011;66079;47.646;19.130;2023-05-10T04:02:43;5.87;;;2.80;;
77123;SDS011;66079;47.646;19.130;2023-05-10T04:06:01;5.07;;;3.07;;
77123;SDS011;66079;47.646;19.130;2023-05-10T04:09:04;3.78;;;3.10;;
77123;SDS011;66079;47.646;19.130;2023-05-10T04:12:07;5.40;;;3.47;;
77123;SDS011;66079;47.646;19.130;2023-05-10T04:15:12;4.15;;;3.47;;
77123;SDS011;66079;47.646;19.130;2023-05-10T04:18:14;8.03;;;3.30;;
77123;SDS011;66079;47.646;19.130;2023-05-10T04:21:17;4.13;;;3.40;;
77123;SDS011;66079;47.646;19.130;2023-05-10T04:24:19;5.03;;;3.40;;
77123;SDS011;66079;47.646;19.130;2023-05-10T04:27:22;5.05;;;3.33;;
77123;SDS011;66079;47.646;19.130;2023-05-10T04:30:25;4.20;;;3.15;;
77123;SDS011;66079;47.646;19.130;2023-05-10T04:33:27;6.50;;;3.30;;
77123;SDS011;66079;47.646;19.130;2023-05-10T04:36:30;5.43;;;3.70;;
77123;SDS011;66079;47.646;19.130;2023-05-10T04:39:34;5.35;;;3.63;;
77123;SDS011;66079;47.646;19.130;2023-05-10T04:42:39;5.22;;;3.35;;
77123;SDS011;66079;47.646;19.130;2023-05-10T04:45:43;4.60;;;3.83;;
77123;SDS011;66079;47.646;19.130;2023-05-10T04:48:45;4.50;;;3.60;;
77123;SDS011;66079;47.646;19.130;2023-05-10T04:51:48;6.90;;;3.50;;
77123;SDS011;66079;47.646;19.130;2023-05-10T04:54:50;6.47;;;3.72;;
77123;SDS011;66079;47.646;19.130;2023-05-10T04:57:53;4.78;;;3.63;;
77123;SDS011;66079;47.646;19.130;2023-05-10T05:01:04;4.47;;;3.60;;
77123;SDS011;66079;47.646;19.130;2023-05-10T05:04:11;5.07;;;3.47;;
77123;SDS011;66079;47.646;19.130;2023-05-10T05:07:14;4.47;;;3.63;;
77123;SDS011;66079;47.646;19.130;2023-05-10T05:10:16;5.70;;;3.50;;
77123;SDS011;66079;47.646;19.130;2023-05-10T05:13:20;5.95;;;3.85;;
77123;SDS011;66079;47.646;19.130;2023-05-10T05:16:22;7.13;;;3.65;;
77123;SDS011;66079;47.646;19.130;2023-05-10T05:19:26;6.77;;;4.13;;
77123;SDS011;66079;47.646;19.130;2023-05-10T05:22:30;5.13;;;3.60;;
77123;SDS011;66079;47.646;19.130;2023-05-10T05:25:34;6.40;;;3.90;;
77123;SDS011;66079;47.646;19.130;2023-05-10T05:28:37;11.80;;;3.80;;
77123;SDS011;66079;47.646;19.130;2023-05-10T05:31:41;11.85;;;3.65;;
77123;SDS011;66079;47.646;19.130;2023-05-10T05:34:45;4.47;;;3.50;;
77123;SDS011;66079;47.646;19.130;2023-05-10T05:37:48;7.07;;;3.87;;
77123;SDS011;66079;47.646;19.130;2023-05-10T05:40:51;5.40;;;4.13;;
77123;SDS011;66079;47.646;19.130;2023-05-10T05:43:54;6.63;;;3.83;;
77123;SDS011;66079;47.646;19.130;2023-05-10T05:46:59;4.43;;;3.60;;
77123;SDS011;66079;47.646;19.130;2023-05-10T05:50:02;5.60;;;3.87;;
77123;SDS011;66079;47.646;19.130;2023-05-10T05:53:06;5.30;;;3.57;;
77123;SDS011;66079;47.646;19.130;2023-05-10T05:56:08;9.65;;;3.85;;
77123;SDS011;66079;47.646;19.130;2023-05-10T05:59:12;8.38;;;3.60;;
77123;SDS011;66079;47.646;19.130;2023-05-10T06:02:15;4.50;;;3.65;;
77123;SDS011;66079;47.646;19.130;2023-05-10T06:05:18;7.10;;;3.87;;
77123;SDS011;66079;47.646;19.130;2023-05-10T06:08:21;5.57;;;3.80;;
77123;SDS011;66079;47.646;19.130;2023-05-10T06:11:25;9.00;;;3.60;;
77123;SDS011;66079;47.646;19.130;2023-05-10T06:14:28;4.25;;;3.80;;
77123;SDS011;66079;47.646;19.130;2023-05-10T06:17:31;7.25;;;3.53;;
77123;SDS011;66079;47.646;19.130;2023-05-10T06:20:34;5.67;;;3.40;;
77123;SDS011;66079;47.646;19.130;2023-05-10T06:23:37;6.33;;;3.80;;
77123;SDS011;66079;47.646;19.130;2023-05-10T06:26:41;6.35;;;4.15;;
77123;SDS011;66079;47.646;19.130;2023-05-10T06:29:43;4.35;;;3.53;;
77123;SDS011;66079;47.646;19.130;2023-05-10T06:32:46;6.95;;;3.53;;
77123;SDS011;66079;47.646;19.130;2023-05-10T06:35:49;5.63;;;3.40;;
77123;SDS011;66079;47.646;19.130;2023-05-10T06:38:52;5.40;;;3.37;;
77123;SDS011;66079;47.646;19.130;2023-05-10T06:41:55;5.20;;;3.42;;
77123;SDS011;66079;47.646;19.130;2023-05-10T06:44:59;5.70;;;3.60;;
77123;SDS011;66079;47.646;19.130;2023-05-10T06:48:01;8.63;;;3.60;;
77123;SDS011;66079;47.646;19.130;2023-05-10T06:51:05;4.10;;;3.40;;
77123;SDS011;66079;47.646;19.130;2023-05-10T06:54:27;4.93;;;3.10;;
77123;SDS011;66079;47.646;19.130;2023-05-10T06:57:31;4.78;;;3.08;;
77123;SDS011;66079;47.646;19.130;2023-05-10T07:00:33;5.20;;;3.08;;
77123;SDS011;66079;47.646;19.130;2023-05-10T07:03:37;5.80;;;3.10;;
77123;SDS011;66079;47.646;19.130;2023-05-10T07:06:39;6.40;;;3.30;;
77123;SDS011;66079;47.646;19.130;2023-05-10T07:09:42;4.13;;;3.27;;
77123;SDS011;66079;47.646;19.130;2023-05-10T07:12:46;4.00;;;3.33;;
77123;SDS011;66079;47.646;19.130;2023-05-10T07:15:49;4.50;;;3.53;;
77123;SDS011;66079;47.646;19.130;2023-05-10T07:18:52;5.55;;;3.40;;
77123;SDS011;66079;47.646;19.130;2023-05-10T07:21:55;4.17;;;3.23;;
77123;SDS011;66079;47.646;19.130;2023-05-10T07:24:58;3.70;;;3.10;;
77123;SDS011;66079;47.646;19.130;2023-05-10T07:28:00;4.00;;;3.00;;
77123;SDS011;66079;47.646;19.130;2023-05-10T07:31:03;5.80;;;3.20;;
77123;SDS011;66079;47.646;19.130;2023-05-10T07:34:06;3.88;;;2.85;;
77123;SDS011;66079;47.646;19.130;2023-05-10T07:37:08;4.37;;;2.70;;
77123;SDS011;66079;47.646;19.130;2023-05-10T07:40:11;3.60;;;3.03;;
77123;SDS011;66079;47.646;19.130;2023-05-10T07:43:14;3.63;;;3.10;;
77123;SDS011;66079;47.646;19.130;2023-05-10T07:46:16;6.25;;;3.00;;
77123;SDS011;66079;47.646;19.130;2023-05-10T07:49:19;5.63;;;3.15;;
77123;SDS011;66079;47.646;19.130;2023-05-10T07:52:22;6.20;;;3.27;;
77123;SDS011;66079;47.646;19.130;2023-05-10T07:55:24;7.53;;;2.90;;
77123;SDS011;66079;47.646;19.130;2023-05-10T07:58:29;4.30;;;3.15;;
77123;SDS011;66079;47.646;19.130;2023-05-10T08:01:33;4.82;;;3.17;;
77123;SDS011;66079;47.646;19.130;2023-05-10T08:04:37;3.08;;;2.78;;
77123;SDS011;66079;47.646;19.130;2023-05-10T08:07:39;3.97;;;2.87;;
77123;SDS011;66079;47.646;19.130;2023-05-10T08:10:43;4.47;;;2.70;;
77123;SDS011;66079;47.646;19.130;2023-05-10T08:13:46;4.78;;;2.72;;
77123;SDS011;66079;47.646;19.130;2023-05-10T08:16:50;3.47;;;2.70;;
77123;SDS011;66079;47.646;19.130;2023-05-10T08:19:53;3.28;;;2.97;;
77123;SDS011;66079;47.646;19.130;2023-05-10T08:22:55;4.37;;;2.83;;
77123;SDS011;66079;47.646;19.130;2023-05-10T08:25:58;3.80;;;3.13;;
77123;SDS011;66079;47.646;19.130;2023-05-10T08:29:02;3.58;;;2.92;;
77123;SDS011;66079;47.646;19.130;2023-05-10T08:32:04;3.13;;;2.70;;
77123;SDS011;66079;47.646;19.130;2023-05-10T08:35:07;3.45;;;2.78;;
77123;SDS011;66079;47.646;19.130;2023-05-10T08:38:09;4.03;;;2.93;;
77123;SDS011;66079;47.646;19.130;2023-05-10T08:41:12;2.87;;;2.47;;
77123;SDS011;66079;47.646;19.130;2023-05-10T08:44:16;4.65;;;2.80;;
77123;SDS011;66079;47.646;19.130;2023-05-10T08:47:20;4.68;;;3.03;;
77123;SDS011;66079;47.646;19.130;2023-05-10T08:50:23;5.75;;;2.88;;
77123;SDS011;66079;47.646;19.130;2023-05-10T08:53:28;7.90;;;3.07;;
77123;SDS011;66079;47.646;19.130;2023-05-10T08:56:35;3.67;;;2.53;;
77123;SDS011;66079;47.646;19.130;2023-05-10T08:59:38;4.10;;;2.35;;
77123;SDS011;66079;47.646;19.130;2023-05-10T09:02:42;3.65;;;2.70;;
77123;SDS011;66079;47.646;19.130;2023-05-10T09:05:46;3.42;;;2.80;;
77123;SDS011;66079;47.646;19.130;2023-05-10T09:08:49;3.20;;;2.80;;
77123;SDS011;66079;47.646;19.130;2023-05-10T09:11:53;3.27;;;2.70;;
77123;SDS011;66079;47.646;19.130;2023-05-10T09:14:57;4.30;;;3.10;;
77123;SDS011;66079;47.646;19.130;2023-05-10T09:18:01;2.92;;;2.60;;
77123;SDS011;66079;47.646;19.130;2023-05-10T09:21:04;3.03;;;2.35;;
77123;SDS011;66079;47.646;19.130;2023-05-10T09:24:07;4.30;;;2.60;;
77123;SDS011;66079;47.646;19.130;2023-05-10T09:27:11;3.00;;;2.70;;
77123;SDS011;66079;47.646;19.130;2023-05-10T09:30:17;4.70;;;2.65;;
77123;SDS011;66079;47.646;19.130;2023-05-10T09:33:26;2.80;;;2.60;;
77123;SDS011;66079;47.646;19.130;2023-05-10T09:36:29;2.90;;;2.50;;
77123;SDS011;66079;47.646;19.130;2023-05-10T09:39:35;3.83;;;2.70;;
77123;SDS011;66079;47.646;19.130;2023-05-10T09:42:40;5.13;;;2.90;;
77123;SDS011;66079;47.646;19.130;2023-05-10T09:45:44;3.78;;;2.75;;
77123;SDS011;66079;47.646;19.130;2023-05-10T09:48:52;3.85;;;2.45;;
77123;SDS011;66079;47.646;19.130;2023-05-10T09:52:04;8.20;;;2.47;;
77123;SDS011;66079;47.646;19.130;2023-05-10T09:55:08;5.47;;;2.33;;
77123;SDS011;66079;47.646;19.130;2023-05-10T09:58:14;2.83;;;2.47;;
77123;SDS011;66079;47.646;19.130;2023-05-10T10:01:17;4.20;;;2.50;;
77123;SDS011;66079;47.646;19.130;2023-05-10T10:04:19;4.00;;;2.55;;
77123;SDS011;66079;47.646;19.130;2023-05-10T10:07:23;3.33;;;2.65;;
77123;SDS011;66079;47.646;19.130;2023-05-10T10:10:27;2.93;;;2.70;;
77123;SDS011;66079;47.646;19.130;2023-05-10T10:13:30;4.53;;;2.20;;
77123;SDS011;66079;47.646;19.130;2023-05-10T10:16:34;2.85;;;2.10;;
77123;SDS011;66079;47.646;19.130;2023-05-10T10:19:37;3.72;;;2.13;;
77123;SDS011;66079;47.646;19.130;2023-05-10T10:22:40;2.40;;;2.20;;
77123;SDS011;66079;47.646;19.130;2023-05-10T10:25:44;3.37;;;1.90;;
77123;SDS011;66079;47.646;19.130;2023-05-10T10:35:19;5.85;;;2.22;;
77123;SDS011;66079;47.646;19.130;2023-05-10T10:38:22;3.03;;;2.30;;
77123;SDS011;66079;47.646;19.130;2023-05-10T10:41:32;4.57;;;2.00;;
77123;SDS011;66079;47.646;19.130;2023-05-10T10:44:37;2.17;;;1.90;;
77123;SDS011;66079;47.646;19.130;2023-05-10T10:47:40;2.80;;;1.98;;
77123;SDS011;66079;47.646;19.130;2023-05-10T10:50:45;2.67;;;1.90;;
77123;SDS011;66079;47.646;19.130;2023-05-10T10:53:51;3.80;;;2.03;;
77123;SDS011;66079;47.646;19.130;2023-05-10T10:57:13;3.10;;;2.10;;
77123;SDS011;66079;47.646;19.130;2023-05-10T11:00:20;3.53;;;2.13;;
77123;SDS011;66079;47.646;19.130;2023-05-10T11:03:23;2.58;;;2.00;;
77123;SDS011;66079;47.646;19.130;2023-05-10T11:06:31;2.10;;;1.45;;
77123;SDS011;66079;47.646;19.130;2023-05-10T11:09:39;3.80;;;1.80;;
77123;SDS011;66079;47.646;19.130;2023-05-10T11:13:01;2.73;;;2.00;;
77123;SDS011;66079;47.646;19.130;2023-05-10T11:16:15;1.97;;;1.77;;
77123;SDS011;66079;47.646;19.130;2023-05-10T11:19:19;3.05;;;2.28;;
77123;SDS011;66079;47.646;19.130;2023-05-10T11:22:22;3.55;;;2.15;;
77123;SDS011;66079;47.646;19.130;2023-05-10T11:25:27;2.20;;;1.75;;
77123;SDS011;66079;47.646;19.130;2023-05-10T11:28:30;1.80;;;1.70;;
77123;SDS011;66079;47.646;19.130;2023-05-10T11:31:34;3.07;;;1.70;;
77123;SDS011;66079;47.646;19.130;2023-05-10T11:34:38;3.72;;;1.90;;
77123;SDS011;66079;47.646;19.130;2023-05-10T11:37:41;3.10;;;1.90;;
77123;SDS011;66079;47.646;19.130;2023-05-10T11:40:45;5.10;;;1.90;;
77123;SDS011;66079;47.646;19.130;2023-05-10T11:43:49;2.17;;;1.70;;
77123;SDS011;66079;47.646;19.130;2023-05-10T11:46:53;1.70;;;1.50;;
77123;SDS011;66079;47.646;19.130;2023-05-10T11:49:56;2.00;;;1.80;;
77123;SDS011;66079;47.646;19.130;2023-05-10T11:52:59;1.95;;;1.80;;
77123;SDS011;66079;47.646;19.130;2023-05-10T11:56:02;2.97;;;1.67;;
77123;SDS011;66079;47.646;19.130;2023-05-10T11:59:08;2.67;;;1.70;;
77123;SDS011;66079;47.646;19.130;2023-05-10T12:02:12;3.23;;;1.80;;
77123;SDS011;66079;47.646;19.130;2023-05-10T12:05:18;1.90;;;1.70;;
77123;SDS011;66079;47.646;19.130;2023-05-10T12:08:24;3.22;;;1.70;;
77123;SDS011;66079;47.646;19.130;2023-05-10T12:11:28;2.30;;;2.10;;
77123;SDS011;66079;47.646;19.130;2023-05-10T12:14:33;3.07;;;2.07;;
77123;SDS011;66079;47.646;19.130;2023-05-10T12:17:37;2.30;;;1.70;;
77123;SDS011;66079;47.646;19.130;2023-05-10T12:20:44;1.50;;;1.40;;
77123;SDS011;66079;47.646;19.130;2023-05-10T12:23:48;2.75;;;1.85;;
77123;SDS011;66079;47.646;19.130;2023-05-10T12:26:53;2.25;;;2.05;;
77123;SDS011;66079;47.646;19.130;2023-05-10T12:29:55;4.10;;;1.67;;
77123;SDS011;66079;47.646;19.130;2023-05-10T12:33:02;1.83;;;1.73;;
77123;SDS011;66079;47.646;19.130;2023-05-10T12:36:11;3.40;;;1.50;;
77123;SDS011;66079;47.646;19.130;2023-05-10T12:39:14;5.78;;;2.25;;
77123;SDS011;66079;47.646;19.130;2023-05-10T12:42:17;2.63;;;1.70;;
77123;SDS011;66079;47.646;19.130;2023-05-10T12:45:20;1.77;;;1.67;;
77123;SDS011;66079;47.646;19.130;2023-05-10T12:48:23;2.90;;;1.90;;
77123;SDS011;66079;47.646;19.130;2023-05-10T12:51:25;3.10;;;1.70;;
77123;SDS011;66079;47.646;19.130;2023-05-10T12:54:28;2.83;;;1.77;;
77123;SDS011;66079;47.646;19.130;2023-05-10T12:57:31;2.88;;;1.55;;
77123;SDS011;66079;47.646;19.130;2023-05-10T13:00:33;2.53;;;1.60;;
77123;SDS011;66079;47.646;19.130;2023-05-10T13:03:36;1.60;;;1.50;;
77123;SDS011;66079;47.646;19.130;2023-05-10T13:06:38;3.17;;;1.77;;
77123;SDS011;66079;47.646;19.130;2023-05-10T13:09:41;2.72;;;1.83;;
77123;SDS011;66079;47.646;19.130;2023-05-10T13:12:43;5.40;;;1.75;;
77123;SDS011;66079;47.646;19.130;2023-05-10T13:15:47;2.00;;;1.43;;
77123;SDS011;66079;47.646;19.130;2023-05-10T13:18:50;6.13;;;1.63;;
77123;SDS011;66079;47.646;19.130;2023-05-10T13:21:53;2.53;;;1.40;;
77123;SDS011;66079;47.646;19.130;2023-05-10T13:24:55;3.78;;;1.48;;
77123;SDS011;66079;47.646;19.130;2023-05-10T13:27:58;2.65;;;1.80;;
77123;SDS011;66079;47.646;19.130;2023-05-10T13:31:01;3.30;;;1.77;;
77123;SDS011;66079;47.646;19.130;2023-05-10T13:34:04;3.53;;;1.60;;
77123;SDS011;66079;47.646;19.130;2023-05-10T13:37:07;1.95;;;1.70;;
77123;SDS011;66079;47.646;19.130;2023-05-10T13:40:09;2.60;;;1.77;;
77123;SDS011;66079;47.646;19.130;2023-05-10T13:43:12;2.20;;;1.23;;
77123;SDS011;66079;47.646;19.130;2023-05-10T13:46:15;4.40;;;1.57;;
77123;SDS011;66079;47.646;19.130;2023-05-10T13:49:17;1.50;;;1.40;;
77123;SDS011;66079;47.646;19.130;2023-05-10T13:52:20;3.70;;;1.40;;
77123;SDS011;66079;47.646;19.130;2023-05-10T13:55:23;2.38;;;1.38;;
77123;SDS011;66079;47.646;19.130;2023-05-10T13:58:26;1.55;;;1.20;;
77123;SDS011;66079;47.646;19.130;2023-05-10T14:01:28;2.17;;;1.33;;
77123;SDS011;66079;47.646;19.130;2023-05-10T14:04:31;1.97;;;1.40;;
77123;SDS011;66079;47.646;19.130;2023-05-10T14:07:34;2.05;;;1.30;;
77123;SDS011;66079;47.646;19.130;2023-05-10T14:10:36;2.28;;;1.30;;
77123;SDS011;66079;47.646;19.130;2023-05-10T14:13:40;1.30;;;1.20;;
77123;SDS011;66079;47.646;19.130;2023-05-10T14:16:43;1.50;;;1.40;;
77123;SDS011;66079;47.646;19.130;2023-05-10T14:19:47;2.13;;;1.40;;
77123;SDS011;66079;47.646;19.130;2023-05-10T14:22:50;1.63;;;1.33;;
77123;SDS011;66079;47.646;19.130;2023-05-10T14:25:53;1.65;;;1.23;;
77123;SDS011;66079;47.646;19.130;2023-05-10T14:28:56;1.85;;;1.40;;
77123;SDS011;66079;47.646;19.130;2023-05-10T14:31:59;1.40;;;1.30;;
77123;SDS011;66079;47.646;19.130;2023-05-10T14:35:02;1.93;;;1.30;;
77123;SDS011;66079;47.646;19.130;2023-05-10T14:38:04;3.72;;;1.25;;
77123;SDS011;66079;47.646;19.130;2023-05-10T14:41:07;4.57;;;1.50;;
77123;SDS011;66079;47.646;19.130;2023-05-10T14:44:12;3.90;;;1.30;;
77123;SDS011;66079;47.646;19.130;2023-05-10T14:47:15;1.30;;;1.20;;
77123;SDS011;66079;47.646;19.130;2023-05-10T14:50:17;10.37;;;1.50;;
77123;SDS011;66079;47.646;19.130;2023-05-10T14:53:37;4.22;;;1.23;;
77123;SDS011;66079;47.646;19.130;2023-05-10T14:56:40;2.85;;;1.10;;
77123;SDS011;66079;47.646;19.130;2023-05-10T14:59:43;2.28;;;1.08;;
77123;SDS011;66079;47.646;19.130;2023-05-10T15:02:46;3.80;;;0.90;;
77123;SDS011;66079;47.646;19.130;2023-05-10T15:05:50;3.53;;;1.20;;
77123;SDS011;66079;47.646;19.130;2023-05-10T15:08:53;1.98;;;1.27;;
77123;SDS011;66079;47.646;19.130;2023-05-10T15:11:56;2.78;;;1.15;;
77123;SDS011;66079;47.646;19.130;2023-05-10T15:14:58;2.50;;;1.30;;
77123;SDS011;66079;47.646;19.130;2023-05-10T15:18:00;1.70;;;1.10;;
77123;SDS011;66079;47.646;19.130;2023-05-10T15:21:03;1.90;;;1.30;;
77123;SDS011;66079;47.646;19.130;2023-05-10T15:24:06;3.22;;;1.58;;
77123;SDS011;66079;47.646;19.130;2023-05-10T15:27:08;1.83;;;1.40;;
77123;SDS011;66079;47.646;19.130;2023-05-10T15:30:11;4.07;;;1.40;;
77123;SDS011;66079;47.646;19.130;2023-05-10T15:33:14;2.90;;;1.40;;
77123;SDS011;66079;47.646;19.130;2023-05-10T15:36:16;2.60;;;1.53;;
77123;SDS011;66079;47.646;19.130;2023-05-10T15:39:20;1.95;;;1.40;;
77123;SDS011;66079;47.646;19.130;2023-05-10T15:42:22;1.88;;;1.48;;
77123;SDS011;66079;47.646;19.130;2023-05-10T15:45:25;2.42;;;1.58;;
77123;SDS011;66079;47.646;19.130;2023-05-10T15:48:27;5.77;;;1.73;;
77123;SDS011;66079;47.646;19.130;2023-05-10T15:51:30;2.67;;;1.77;;
77123;SDS011;66079;47.646;19.130;2023-05-10T15:54:37;2.17;;;1.48;;
77123;SDS011;66079;47.646;19.130;2023-05-10T15:57:41;3.17;;;1.52;;
77123;SDS011;66079;47.646;19.130;2023-05-10T16:00:44;1.95;;;1.70;;
77123;SDS011;66079;47.646;19.130;2023-05-10T16:03:47;10.90;;;2.10;;
77123;SDS011;66079;47.646;19.130;2023-05-10T16:06:49;2.77;;;1.67;;
77123;SDS011;66079;47.646;19.130;2023-05-10T16:09:52;2.33;;;1.70;;
77123;SDS011;66079;47.646;19.130;2023-05-10T16:12:54;3.45;;;1.50;;
77123;SDS011;66079;47.646;19.130;2023-05-10T16:15:57;3.25;;;1.50;;
77123;SDS011;66079;47.646;19.130;2023-05-10T16:18:59;2.77;;;1.50;;
77123;SDS011;66079;47.646;19.130;2023-05-10T16:22:03;2.47;;;1.70;;
77123;SDS011;66079;47.646;19.130;2023-05-10T16:25:06;1.85;;;1.42;;
77123;SDS011;66079;47.646;19.130;2023-05-10T16:28:09;6.38;;;1.60;;
77123;SDS011;66079;47.646;19.130;2023-05-10T16:31:11;5.00;;;2.03;;
77123;SDS011;66079;47.646;19.130;2023-05-10T16:34:15;7.10;;;1.57;;
77123;SDS011;66079;47.646;19.130;2023-05-10T16:37:17;3.13;;;1.60;;
77123;SDS011;66079;47.646;19.130;2023-05-10T16:40:20;2.10;;;1.50;;
77123;SDS011;66079;47.646;19.130;2023-05-10T16:43:23;4.43;;;1.60;;
77123;SDS011;66079;47.646;19.130;2023-05-10T16:46:27;3.35;;;1.70;;
77123;SDS011;66079;47.646;19.130;2023-05-10T16:49:29;3.07;;;1.63;;
77123;SDS011;66079;47.646;19.130;2023-05-10T16:52:33;3.83;;;1.70;;
77123;SDS011;66079;47.646;19.130;2023-05-10T16:55:36;2.63;;;1.48;;
77123;SDS011;66079;47.646;19.130;2023-05-10T16:58:39;2.50;;;1.85;;
77123;SDS011;66079;47.646;19.130;2023-05-10T17:01:41;2.58;;;1.40;;
77123;SDS011;66079;47.646;19.130;2023-05-10T17:04:44;1.97;;;1.40;;
77123;SDS011;66079;47.646;19.130;2023-05-10T17:07:46;3.17;;;1.77;;
77123;SDS011;66079;47.646;19.130;2023-05-10T17:10:49;3.85;;;1.77;;
77123;SDS011;66079;47.646;19.130;2023-05-10T17:13:51;2.90;;;1.45;;
77123;SDS011;66079;47.646;19.130;2023-05-10T17:16:53;2.47;;;1.50;;
77123;SDS011;66079;47.646;19.130;2023-05-10T17:19:56;1.90;;;1.60;;
77123;SDS011;66079;47.646;19.130;2023-05-10T17:22:59;5.20;;;1.80;;
77123;SDS011;66079;47.646;19.130;2023-05-10T17:26:04;2.58;;;1.60;;
77123;SDS011;66079;47.646;19.130;2023-05-10T17:29:07;2.10;;;1.45;;
77123;SDS011;66079;47.646;19.130;2023-05-10T17:32:10;3.05;;;1.50;;
77123;SDS011;66079;47.646;19.130;2023-05-10T17:35:12;3.63;;;1.90;;
77123;SDS011;66079;47.646;19.130;2023-05-10T17:38:15;3.13;;;1.70;;
77123;SDS011;66079;47.646;19.130;2023-05-10T17:41:18;1.90;;;1.30;;
77123;SDS011;66079;47.646;19.130;2023-05-10T17:44:20;2.00;;;1.50;;
77123;SDS011;66079;47.646;19.130;2023-05-10T17:47:23;4.57;;;1.70;;
77123;SDS011;66079;47.646;19.130;2023-05-10T17:50:26;2.13;;;1.40;;
77123;SDS011;66079;47.646;19.130;2023-05-10T17:53:28;2.10;;;1.30;;
77123;SDS011;66079;47.646;19.130;2023-05-10T17:56:31;2.72;;;1.45;;
77123;SDS011;66079;47.646;19.130;2023-05-10T17:59:34;2.28;;;1.50;;
77123;SDS011;66079;47.646;19.130;2023-05-10T18:02:36;2.88;;;1.50;;
77123;SDS011;66079;47.646;19.130;2023-05-10T18:05:39;2.70;;;1.50;;
77123;SDS011;66079;47.646;19.130;2023-05-10T18:08:41;5.03;;;1.30;;
77123;SDS011;66079;47.646;19.130;2023-05-10T18:11:44;2.40;;;1.40;;
77123;SDS011;66079;47.646;19.130;2023-05-10T18:14:46;4.95;;;1.48;;
77123;SDS011;66079;47.646;19.130;2023-05-10T18:17:49;4.03;;;1.50;;
77123;SDS011;66079;47.646;19.130;2023-05-10T18:20:51;1.50;;;1.37;;
77123;SDS011;66079;47.646;19.130;2023-05-10T18:23:57;1.90;;;1.30;;
77123;SDS011;66079;47.646;19.130;2023-05-10T18:27:00;3.97;;;1.50;;
77123;SDS011;66079;47.646;19.130;2023-05-10T18:30:03;5.90;;;1.52;;